createdAt,value
2023-02-24T00:00:53.422Z,-0.68
2023-02-24T00:02:02.497Z,-0.65
2023-02-24T00:03:10.333Z,-0.62
2023-02-24T00:04:13.627Z,-0.62
2023-02-24T00:05:17.885Z,-0.80
2023-02-24T00:06:20.951Z,-0.79
2023-02-24T00:07:23.669Z,-0.72
2023-02-24T00:08:26.933Z,-0.68
2023-02-24T00:09:34.176Z,-0.59
2023-02-24T00:10:36.980Z,-0.54
2023-02-24T00:11:42.396Z,-0.54
2023-02-24T00:12:47.416Z,-0.57
2023-02-24T00:13:52.485Z,-0.49
2023-02-24T00:14:55.290Z,-0.46
2023-02-24T00:16:03.041Z,-0.52
2023-02-24T00:17:10.223Z,-0.45
2023-02-24T00:18:16.022Z,-0.42
2023-02-24T00:19:20.793Z,-0.41
2023-02-24T00:20:24.640Z,-0.44
2023-02-24T00:21:32.558Z,-0.49
2023-02-24T00:22:35.808Z,-0.48
2023-02-24T00:23:42.349Z,-0.46
2023-02-24T00:24:46.734Z,-0.56
2023-02-24T00:25:50.454Z,-0.46
2023-02-24T00:26:57.469Z,-0.37
2023-02-24T00:28:02.014Z,-0.29
2023-02-24T00:29:06.479Z,-0.41
2023-02-24T00:30:12.060Z,-0.61
2023-02-24T00:31:17.832Z,-0.58
2023-02-24T00:32:21.952Z,-0.65
2023-02-24T00:33:28.236Z,-0.49
2023-02-24T00:34:35.777Z,-0.58
2023-02-24T00:35:38.840Z,-0.41
2023-02-24T00:36:44.152Z,-0.58
2023-02-24T00:37:48.377Z,-0.53
2023-02-24T00:38:56.446Z,-0.51
2023-02-24T00:39:58.865Z,-0.55
2023-02-24T00:41:15.718Z,-0.64
2023-02-24T00:42:19.292Z,-0.66
2023-02-24T00:43:24.152Z,-0.65
2023-02-24T00:44:30.384Z,-0.52
2023-02-24T00:45:40.800Z,-0.54
2023-02-24T00:46:44.439Z,-0.59
2023-02-24T00:47:48.561Z,-0.52
2023-02-24T00:48:54.188Z,-0.44
2023-02-24T00:50:00.161Z,-0.35
2023-02-24T00:51:03.315Z,-0.46
2023-02-24T00:52:06.465Z,-0.53
2023-02-24T00:53:09.014Z,-0.37
2023-02-24T00:54:15.994Z,-0.31
2023-02-24T00:55:19.495Z,-0.35
2023-02-24T00:56:23.973Z,-0.53
2023-02-24T00:57:29.989Z,-0.46
2023-02-24T00:58:35.062Z,-0.59
2023-02-24T00:59:38.910Z,-0.58
2023-02-24T01:00:43.712Z,-0.58
2023-02-24T01:01:50.909Z,-0.51
2023-02-24T01:02:54.113Z,-0.58
2023-02-24T01:03:57.655Z,-0.60
2023-02-24T01:05:01.165Z,-0.48
2023-02-24T01:06:06.071Z,-0.47
2023-02-24T01:07:12.385Z,-0.45
2023-02-24T01:08:18.642Z,-0.38
2023-02-24T01:09:21.788Z,-0.58
2023-02-24T01:10:26.848Z,-0.76
2023-02-24T01:11:51.019Z,-0.52
2023-02-24T01:12:54.476Z,-0.37
2023-02-24T01:13:57.450Z,-0.66
2023-02-24T01:15:01.587Z,-0.56
2023-02-24T01:16:06.574Z,-0.53
2023-02-24T01:17:09.809Z,-0.45
2023-02-24T01:18:12.369Z,-0.44
2023-02-24T01:19:15.508Z,-0.48
2023-02-24T01:20:22.904Z,-0.48
2023-02-24T01:21:27.119Z,-0.40
2023-02-24T01:22:30.407Z,-0.37
2023-02-24T01:23:33.574Z,-0.30
2023-02-24T01:24:40.415Z,-0.38
2023-02-24T01:25:45.705Z,-0.52
2023-02-24T01:26:50.228Z,-0.51
2023-02-24T01:27:54.433Z,-0.43
2023-02-24T01:28:58.012Z,-0.37
2023-02-24T01:30:03.372Z,-0.39
2023-02-24T01:31:13.110Z,-0.37
2023-02-24T01:32:18.024Z,-0.22
2023-02-24T01:33:22.340Z,-0.32
2023-02-24T01:34:28.113Z,-0.62
2023-02-24T01:35:35.968Z,-0.34
2023-02-24T01:36:40.780Z,-0.18
2023-02-24T01:37:46.460Z,-0.13
2023-02-24T01:38:49.073Z,-0.16
2023-02-24T01:39:54.740Z,-0.10
2023-02-24T01:40:58.656Z,-0.29
2023-02-24T01:42:02.785Z,-0.32
2023-02-24T01:43:09.434Z,-0.32
2023-02-24T01:44:18.545Z,-0.25
2023-02-24T01:45:23.674Z,-0.31
2023-02-24T01:46:28.491Z,-0.41
2023-02-24T01:47:31.933Z,-0.30
2023-02-24T01:48:35.300Z,-0.44
2023-02-24T01:49:40.392Z,-0.42
2023-02-24T01:50:43.653Z,-0.21
2023-02-24T01:51:51.976Z,-0.22
2023-02-24T01:52:57.290Z,-0.10
2023-02-24T01:54:01.466Z,-0.10
2023-02-24T01:55:20.334Z,-0.13
2023-02-24T01:56:23.640Z,-0.05
2023-02-24T01:57:28.703Z,-0.04
2023-02-24T01:58:33.535Z,-0.13
2023-02-24T01:59:37.738Z,-0.02
2023-02-24T02:00:42.081Z,-0.22
2023-02-24T02:01:46.560Z,-0.30
2023-02-24T02:02:57.230Z,-0.22
2023-02-24T02:04:02.226Z,-0.04
2023-02-24T02:05:06.924Z,-0.11
2023-02-24T02:06:11.861Z,-0.15
2023-02-24T02:07:16.981Z,-0.24
2023-02-24T02:08:21.932Z,-0.40
2023-02-24T02:09:25.821Z,-0.38
2023-02-24T02:10:29.425Z,-0.54
2023-02-24T02:11:33.456Z,-0.35
2023-02-24T02:12:41.963Z,-0.19
2023-02-24T02:13:45.735Z,-0.27
2023-02-24T02:14:52.677Z,-0.44
2023-02-24T02:16:00.849Z,-0.41
2023-02-24T02:17:23.331Z,-0.24
2023-02-24T02:18:35.776Z,-0.23
2023-02-24T02:19:52.056Z,-0.36
2023-02-24T02:20:58.019Z,-0.38
2023-02-24T02:22:08.978Z,-0.28
2023-02-24T02:23:16.526Z,-0.33
2023-02-24T02:24:20.611Z,-0.38
2023-02-24T02:25:25.819Z,-0.13
2023-02-24T02:26:48.433Z,-0.25
2023-02-24T02:27:58.553Z,-0.20
2023-02-24T02:29:23.989Z,-0.19
2023-02-24T02:30:33.998Z,-0.25
2023-02-24T02:31:52.472Z,-0.31
2023-02-24T02:33:02.433Z,-0.22
2023-02-24T02:34:13.242Z,-0.23
2023-02-24T02:35:21.045Z,-0.19
2023-02-24T02:36:33.217Z,-0.26
2023-02-24T02:37:41.209Z,-0.20
2023-02-24T02:38:58.886Z,-0.23
2023-02-24T02:40:11.584Z,-0.27
2023-02-24T02:41:18.719Z,-0.26
2023-02-24T02:42:41.911Z,-0.19
2023-02-24T02:43:48.936Z,-0.22
2023-02-24T02:44:56.695Z,-0.09
2023-02-24T02:46:02.939Z,-0.12
2023-02-24T02:47:13.554Z,-0.10
2023-02-24T02:48:18.282Z,-0.10
2023-02-24T02:49:24.542Z,-0.14
2023-02-24T02:50:29.035Z,-0.09
2023-02-24T02:51:33.884Z,-0.04
2023-02-24T02:52:42.051Z,-0.09
2023-02-24T02:53:53.257Z,-0.03
2023-02-24T02:54:58.384Z,-0.07
2023-02-24T02:56:02.488Z,-0.05
2023-02-24T02:57:13.078Z,-0.14
2023-02-24T02:58:17.094Z,-0.21
2023-02-24T02:59:23.740Z,-0.28
2023-02-24T03:00:30.743Z,-0.34
2023-02-24T03:01:35.791Z,-0.18
2023-02-24T03:02:41.865Z,-0.17
2023-02-24T03:03:49.560Z,-0.15
2023-02-24T03:04:54.900Z,-0.07
2023-02-24T03:06:06.613Z,-0.02
2023-02-24T03:07:10.673Z,0.14
2023-02-24T03:08:16.088Z,-0.05
2023-02-24T03:09:23.797Z,-0.15
2023-02-24T03:10:28.599Z,-0.07
2023-02-24T03:11:33.158Z,0.19
2023-02-24T03:12:38.405Z,0.21
2023-02-24T03:13:45.408Z,0.23
2023-02-24T03:14:54.232Z,0.10
2023-02-24T03:16:00.312Z,0.12
2023-02-24T03:17:05.771Z,0.12
2023-02-24T03:18:10.170Z,0.23
2023-02-24T03:19:14.778Z,0.21
2023-02-24T03:20:26.367Z,0.18
2023-02-24T03:21:32.289Z,0.28
2023-02-24T03:22:54.889Z,0.20
2023-02-24T03:23:58.311Z,0.17
2023-02-24T03:25:01.834Z,-0.05
2023-02-24T03:26:20.605Z,-0.19
2023-02-24T03:27:27.147Z,0.14
2023-02-24T03:28:37.677Z,0.21
2023-02-24T03:29:46.358Z,0.10
2023-02-24T03:30:51.456Z,0.02
2023-02-24T03:32:09.670Z,0.19
2023-02-24T03:33:16.989Z,0.11
2023-02-24T03:34:31.410Z,-0.06
2023-02-24T03:35:37.549Z,0.20
2023-02-24T03:36:41.158Z,0.21
2023-02-24T03:37:47.690Z,0.20
2023-02-24T03:38:51.325Z,0.16
2023-02-24T03:39:58.514Z,0.32
2023-02-24T03:41:02.073Z,0.43
2023-02-24T03:42:09.108Z,0.44
2023-02-24T03:43:18.311Z,0.53
2023-02-24T03:44:22.573Z,0.62
2023-02-24T03:45:26.869Z,0.50
2023-02-24T03:46:30.667Z,0.43
2023-02-24T03:47:36.191Z,0.31
2023-02-24T03:48:43.502Z,0.32
2023-02-24T03:49:49.326Z,0.26
2023-02-24T03:50:55.147Z,0.05
2023-02-24T03:52:19.827Z,0.32
2023-02-24T03:53:34.628Z,0.49
2023-02-24T03:54:43.475Z,0.46
2023-02-24T03:55:53.419Z,0.26
2023-02-24T03:57:01.229Z,0.08
2023-02-24T03:58:06.695Z,0.19
2023-02-24T03:59:13.973Z,0.11
2023-02-24T04:00:24.558Z,0.13
2023-02-24T04:01:35.585Z,0.06
2023-02-24T04:02:39.247Z,0.12
2023-02-24T04:03:50.167Z,0.02
2023-02-24T04:04:57.496Z,0.14
2023-02-24T04:06:12.952Z,0.05
2023-02-24T04:07:25.382Z,0.17
2023-02-24T04:08:29.684Z,0.34
2023-02-24T04:09:34.570Z,0.41
2023-02-24T04:10:54.669Z,0.34
2023-02-24T04:12:05.718Z,0.37
2023-02-24T04:13:16.078Z,0.33
2023-02-24T04:14:26.211Z,0.44
2023-02-24T04:15:31.293Z,0.42
2023-02-24T04:16:46.259Z,0.50
2023-02-24T04:17:58.897Z,0.37
2023-02-24T04:19:06.085Z,0.46
2023-02-24T04:20:17.704Z,0.55
2023-02-24T04:21:22.894Z,0.64
2023-02-24T04:22:27.298Z,0.03
2023-02-24T04:23:32.765Z,-0.10
2023-02-24T04:24:38.646Z,-0.25
2023-02-24T04:25:45.061Z,-0.48
2023-02-24T04:26:49.240Z,-0.44
2023-02-24T04:27:53.867Z,-0.40
2023-02-24T04:28:57.352Z,-0.36
2023-02-24T04:30:02.222Z,-0.40
2023-02-24T04:31:08.674Z,-0.34
2023-02-24T04:32:12.880Z,-0.29
2023-02-24T04:33:17.849Z,-0.33
2023-02-24T04:34:21.596Z,-0.42
2023-02-24T04:35:27.224Z,-0.36
2023-02-24T04:36:31.718Z,-0.39
2023-02-24T04:37:40.683Z,-0.23
2023-02-24T04:38:46.336Z,-0.30
2023-02-24T04:39:52.142Z,-0.16
2023-02-24T04:40:58.759Z,-0.10
2023-02-24T04:42:01.957Z,-0.20
2023-02-24T04:43:05.580Z,-0.16
2023-02-24T04:44:09.076Z,-0.20
2023-02-24T04:45:25.940Z,-0.35
2023-02-24T04:46:31.163Z,-0.30
2023-02-24T04:47:39.549Z,-0.23
2023-02-24T04:48:46.036Z,-0.16
2023-02-24T04:49:49.373Z,-0.18
2023-02-24T04:50:53.563Z,-0.22
2023-02-24T04:51:57.704Z,-0.31
2023-02-24T04:53:01.514Z,-0.19
2023-02-24T04:54:04.773Z,-0.12
2023-02-24T04:55:09.515Z,-0.10
2023-02-24T04:56:12.914Z,-0.16
2023-02-24T04:57:16.102Z,-0.01
2023-02-24T04:58:24.827Z,-0.11
2023-02-24T04:59:28.489Z,-0.17
2023-02-24T05:00:33.636Z,-0.16
2023-02-24T05:01:39.433Z,-0.06
2023-02-24T05:02:43.761Z,-0.11
2023-02-24T05:03:48.030Z,-0.08
2023-02-24T05:04:51.782Z,-0.09
2023-02-24T05:06:00.579Z,-0.03
2023-02-24T05:07:03.709Z,-0.06
2023-02-24T05:08:08.620Z,-0.12
2023-02-24T05:09:14.189Z,-0.27
2023-02-24T05:10:18.004Z,-0.16
2023-02-24T05:11:21.326Z,0.04
2023-02-24T05:12:24.586Z,-0.09
2023-02-24T05:13:30.817Z,-0.10
2023-02-24T05:14:34.034Z,-0.18
2023-02-24T05:15:38.508Z,-0.12
2023-02-24T05:16:44.285Z,-0.03
2023-02-24T05:17:50.080Z,0.07
2023-02-24T05:18:56.491Z,0.15
2023-02-24T05:20:18.182Z,0.06
2023-02-24T05:21:36.273Z,-0.10
2023-02-24T05:22:39.386Z,0.02
2023-02-24T05:23:47.354Z,0.09
2023-02-24T05:24:50.498Z,0.07
2023-02-24T05:25:55.618Z,0.10
2023-02-24T05:27:00.821Z,0.19
2023-02-24T05:28:05.592Z,0.20
2023-02-24T05:29:09.471Z,0.25
2023-02-24T05:30:12.903Z,0.26
2023-02-24T05:31:18.349Z,0.27
2023-02-24T05:32:21.663Z,0.43
2023-02-24T05:33:24.757Z,0.19
2023-02-24T05:34:30.669Z,0.33
2023-02-24T05:35:36.939Z,0.41
2023-02-24T05:36:41.216Z,0.30
2023-02-24T05:37:45.231Z,0.25
2023-02-24T05:38:49.403Z,0.23
2023-02-24T05:39:54.351Z,0.23
2023-02-24T05:41:02.670Z,0.25
2023-02-24T05:42:09.682Z,0.49
2023-02-24T05:43:16.234Z,0.42
2023-02-24T05:44:29.203Z,0.49
2023-02-24T05:45:33.308Z,0.47
2023-02-24T05:46:42.047Z,0.41
2023-02-24T05:47:48.125Z,0.41
2023-02-24T05:48:51.443Z,0.41
2023-02-24T05:50:00.167Z,0.59
2023-02-24T05:51:05.263Z,0.49
2023-02-24T05:52:10.068Z,0.50
2023-02-24T05:53:14.006Z,0.48
2023-02-24T05:54:19.092Z,0.45
2023-02-24T05:55:24.311Z,0.60
2023-02-24T05:56:27.792Z,0.62
2023-02-24T05:57:33.711Z,0.65
2023-02-24T05:58:38.106Z,0.82
2023-02-24T05:59:41.313Z,0.84
2023-02-24T06:00:47.495Z,0.80
2023-02-24T06:01:53.573Z,0.69
2023-02-24T06:03:00.011Z,0.75
2023-02-24T06:04:07.891Z,0.76
2023-02-24T06:05:13.905Z,0.89
2023-02-24T06:06:17.586Z,0.92
2023-02-24T06:07:22.192Z,0.95
2023-02-24T06:08:26.542Z,0.91
2023-02-24T06:09:29.636Z,0.96
2023-02-24T06:10:37.940Z,0.84
2023-02-24T06:11:42.496Z,0.87
2023-02-24T06:12:45.917Z,0.96
2023-02-24T06:13:49.685Z,0.98
2023-02-24T06:14:53.485Z,1.04
2023-02-24T06:15:57.466Z,1.14
2023-02-24T06:17:02.744Z,1.13
2023-02-24T06:18:06.551Z,1.11
2023-02-24T06:19:12.177Z,1.23
2023-02-24T06:20:18.764Z,1.27
2023-02-24T06:21:22.682Z,1.23
2023-02-24T06:22:26.860Z,1.13
2023-02-24T06:23:34.114Z,1.29
2023-02-24T06:24:38.064Z,1.22
2023-02-24T06:25:42.450Z,1.10
2023-02-24T06:26:45.517Z,1.05
2023-02-24T06:27:52.925Z,0.94
2023-02-24T06:28:58.984Z,1.11
2023-02-24T06:30:02.794Z,1.19
2023-02-24T06:31:06.584Z,0.96
2023-02-24T06:32:10.104Z,0.99
2023-02-24T06:33:15.172Z,1.12
2023-02-24T06:34:18.680Z,1.16
2023-02-24T06:35:21.743Z,1.23
2023-02-24T06:36:25.084Z,1.15
2023-02-24T06:37:30.334Z,1.18
2023-02-24T06:38:34.460Z,1.08
2023-02-24T06:39:37.712Z,1.04
2023-02-24T06:40:42.890Z,1.08
2023-02-24T06:41:47.818Z,0.90
2023-02-24T06:42:55.750Z,0.80
2023-02-24T06:43:59.215Z,0.86
2023-02-24T06:45:02.814Z,1.11
2023-02-24T06:46:08.139Z,1.01
2023-02-24T06:47:12.735Z,1.01
2023-02-24T06:48:20.371Z,1.14
2023-02-24T06:49:22.708Z,1.04
2023-02-24T06:50:25.991Z,1.22
2023-02-24T06:51:29.745Z,1.16
2023-02-24T06:52:33.215Z,1.27
2023-02-24T06:53:40.799Z,1.29
2023-02-24T06:54:46.169Z,1.33
2023-02-24T06:55:52.092Z,1.32
2023-02-24T06:56:55.637Z,1.27
2023-02-24T06:58:03.186Z,1.21
2023-02-24T06:59:08.436Z,1.25
2023-02-24T07:00:20.635Z,1.24
2023-02-24T07:01:25.994Z,1.35
2023-02-24T07:02:33.941Z,1.42
2023-02-24T07:03:40.103Z,1.47
2023-02-24T07:04:46.544Z,1.55
2023-02-24T07:05:50.907Z,1.52
2023-02-24T07:06:55.455Z,1.47
2023-02-24T07:08:01.620Z,1.56
2023-02-24T07:09:10.749Z,1.60
2023-02-24T07:10:13.969Z,1.59
2023-02-24T07:11:18.776Z,1.67
2023-02-24T07:12:21.452Z,1.67
2023-02-24T07:13:24.868Z,1.51
2023-02-24T07:14:30.774Z,1.50
2023-02-24T07:15:37.202Z,1.70
2023-02-24T07:16:43.978Z,1.85
2023-02-24T07:17:48.455Z,1.86
2023-02-24T07:18:58.779Z,1.78
2023-02-24T07:20:10.410Z,1.87
2023-02-24T07:21:12.989Z,1.91
2023-02-24T07:22:19.942Z,2.01
2023-02-24T07:23:23.456Z,1.95
2023-02-24T07:24:29.020Z,1.92
2023-02-24T07:25:34.118Z,1.94
2023-02-24T07:26:38.238Z,1.96
2023-02-24T07:27:44.168Z,1.74
2023-02-24T07:28:47.867Z,1.79
2023-02-24T07:29:53.259Z,1.82
2023-02-24T07:30:56.712Z,2.07
2023-02-24T07:32:05.101Z,1.89
2023-02-24T07:33:09.082Z,2.05
2023-02-24T07:34:13.254Z,1.93
2023-02-24T07:35:15.656Z,1.98
2023-02-24T07:36:21.694Z,2.06
2023-02-24T07:37:25.161Z,2.09
2023-02-24T07:38:27.727Z,2.06
2023-02-24T07:39:31.012Z,2.28
2023-02-24T07:40:33.814Z,2.10
2023-02-24T07:41:38.420Z,2.22
2023-02-24T07:42:44.625Z,2.34
2023-02-24T07:43:49.847Z,2.48
2023-02-24T07:44:56.990Z,2.41
2023-02-24T07:46:02.186Z,2.38
2023-02-24T07:47:08.498Z,2.27
2023-02-24T07:48:13.982Z,2.39
2023-02-24T07:49:23.370Z,2.27
2023-02-24T07:50:28.192Z,2.26
2023-02-24T07:51:31.664Z,2.47
2023-02-24T07:52:36.272Z,2.48
2023-02-24T07:53:43.202Z,2.70
2023-02-24T07:54:49.972Z,2.75
2023-02-24T07:55:53.032Z,2.70
2023-02-24T07:56:57.180Z,2.64
2023-02-24T07:58:02.132Z,2.67
2023-02-24T07:59:11.798Z,2.67
2023-02-24T08:00:19.904Z,2.76
2023-02-24T08:01:27.957Z,2.76
2023-02-24T08:02:31.561Z,2.63
2023-02-24T08:03:40.659Z,2.53
2023-02-24T08:04:46.568Z,2.43
2023-02-24T08:05:49.745Z,2.61
2023-02-24T08:06:54.109Z,2.57
2023-02-24T08:07:57.420Z,2.59
2023-02-24T08:09:02.644Z,2.75
2023-02-24T08:10:11.689Z,2.70
2023-02-24T08:11:16.474Z,2.84
2023-02-24T08:12:24.239Z,2.95
2023-02-24T08:13:30.636Z,2.68
2023-02-24T08:14:36.124Z,2.66
2023-02-24T08:17:02.646Z,3.04
2023-02-24T08:18:05.901Z,2.81
2023-02-24T08:19:12.134Z,2.97
2023-02-24T08:20:16.986Z,3.05
2023-02-24T08:21:20.901Z,2.97
2023-02-24T08:22:29.006Z,3.04
2023-02-24T08:23:33.674Z,2.67
2023-02-24T08:24:36.137Z,2.62
2023-02-24T08:25:45.381Z,2.77
2023-02-24T08:26:52.666Z,2.78
2023-02-24T08:28:07.834Z,2.74
2023-02-24T08:29:11.279Z,2.64
2023-02-24T08:30:29.011Z,2.81
2023-02-24T08:31:33.870Z,2.95
2023-02-24T08:32:42.872Z,3.11
2023-02-24T08:33:46.373Z,3.06
2023-02-24T08:34:50.188Z,3.16
2023-02-24T08:35:56.912Z,3.12
2023-02-24T08:37:03.036Z,3.10
2023-02-24T08:38:11.357Z,3.29
2023-02-24T08:39:16.550Z,3.08
2023-02-24T08:40:38.633Z,3.04
2023-02-24T08:41:51.335Z,3.26
2023-02-24T08:42:54.934Z,3.30
2023-02-24T08:43:58.429Z,3.17
2023-02-24T08:45:02.603Z,3.14
2023-02-24T08:46:14.857Z,3.23
2023-02-24T08:47:19.088Z,3.04
2023-02-24T08:48:30.220Z,3.17
2023-02-24T08:49:36.248Z,3.25
2023-02-24T08:50:40.264Z,2.78
2023-02-24T08:51:44.843Z,3.16
2023-02-24T08:52:47.166Z,3.56
2023-02-24T08:53:54.791Z,3.62
2023-02-24T08:55:00.240Z,3.34
2023-02-24T08:56:12.201Z,3.23
2023-02-24T08:57:17.262Z,3.40
2023-02-24T08:58:23.074Z,3.37
2023-02-24T08:59:32.427Z,3.29
2023-02-24T09:00:50.672Z,3.40
2023-02-24T09:02:04.730Z,3.53
2023-02-24T09:03:08.954Z,3.67
2023-02-24T09:04:18.296Z,3.57
2023-02-24T09:05:23.615Z,3.62
2023-02-24T09:06:39.314Z,3.74
2023-02-24T09:07:42.920Z,3.60
2023-02-24T09:08:46.748Z,3.60
2023-02-24T09:09:49.615Z,3.56
2023-02-24T09:10:52.202Z,3.68
2023-02-24T09:11:58.686Z,3.79
2023-02-24T09:13:04.313Z,3.48
2023-02-24T09:14:15.265Z,3.42
2023-02-24T09:15:16.424Z,3.49
2023-02-24T09:16:20.872Z,3.23
2023-02-24T09:17:42.771Z,3.68
2023-02-24T09:18:45.487Z,3.87
2023-02-24T09:19:53.013Z,3.71
2023-02-24T09:20:59.675Z,3.61
2023-02-24T09:22:13.353Z,3.58
2023-02-24T09:23:15.438Z,3.72
2023-02-24T09:24:27.947Z,3.76
2023-02-24T09:25:40.097Z,3.73
2023-02-24T09:26:45.192Z,4.02
2023-02-24T09:27:53.018Z,3.85
2023-02-24T09:28:55.406Z,3.96
2023-02-24T09:30:01.285Z,3.81
2023-02-24T09:31:06.165Z,3.91
2023-02-24T09:32:13.615Z,3.92
2023-02-24T09:33:31.611Z,3.67
2023-02-24T09:35:52.100Z,4.09
2023-02-24T09:36:56.291Z,3.83
2023-02-24T09:37:59.799Z,4.06
2023-02-24T09:39:05.955Z,3.68
2023-02-24T09:40:23.996Z,3.66
2023-02-24T09:41:39.456Z,3.47
2023-02-24T09:42:47.680Z,3.72
2023-02-24T09:43:54.207Z,3.68
2023-02-24T09:44:58.964Z,3.66
2023-02-24T09:46:07.248Z,3.82
2023-02-24T09:47:19.546Z,4.06
2023-02-24T09:48:23.792Z,3.97
2023-02-24T09:49:38.802Z,4.02
2023-02-24T09:51:02.496Z,4.10
2023-02-24T09:51:55.820Z,3.64
2023-02-24T09:53:11.102Z,3.73
2023-02-24T09:54:17.154Z,3.77
2023-02-24T09:55:28.269Z,3.94
2023-02-24T09:56:40.461Z,3.96
2023-02-24T09:57:53.766Z,4.05
2023-02-24T09:59:07.081Z,4.09
2023-02-24T10:00:31.381Z,4.24
2023-02-24T10:01:36.644Z,4.18
2023-02-24T10:03:00.495Z,4.22
2023-02-24T10:04:18.480Z,4.35
2023-02-24T10:05:16.709Z,4.26
2023-02-24T10:06:23.166Z,4.11
2023-02-24T10:07:32.415Z,4.23
2023-02-24T10:08:38.898Z,4.07
2023-02-24T10:09:45.274Z,4.14
2023-02-24T10:10:50.659Z,4.26
2023-02-24T10:11:56.880Z,4.40
2023-02-24T10:13:16.593Z,4.36
2023-02-24T10:14:24.191Z,3.83
2023-02-24T10:16:06.152Z,4.05
2023-02-24T10:17:17.642Z,3.93
2023-02-24T10:18:28.767Z,4.11
2023-02-24T10:19:34.469Z,4.42
2023-02-24T10:20:44.383Z,4.82
2023-02-24T10:22:05.395Z,4.61
2023-02-24T10:23:22.664Z,4.36
2023-02-24T10:24:42.386Z,4.04
2023-02-24T10:25:47.776Z,4.14
2023-02-24T10:27:01.122Z,4.05
2023-02-24T10:28:16.194Z,4.34
2023-02-24T10:29:25.552Z,4.40
2023-02-24T10:30:32.894Z,4.52
2023-02-24T10:31:47.277Z,4.32
2023-02-24T10:32:58.971Z,4.19
2023-02-24T10:34:06.082Z,4.14
2023-02-24T10:35:11.911Z,4.30
2023-02-24T10:36:17.976Z,4.34
2023-02-24T10:37:28.300Z,4.34
2023-02-24T10:38:28.148Z,4.10
2023-02-24T10:39:32.239Z,4.02
2023-02-24T10:40:54.277Z,4.10
2023-02-24T10:42:04.017Z,4.33
2023-02-24T10:43:11.424Z,4.58
2023-02-24T10:44:22.869Z,4.42
2023-02-24T10:45:27.324Z,4.36
2023-02-24T10:46:42.006Z,4.19
2023-02-24T10:47:44.909Z,4.14
2023-02-24T10:48:52.272Z,4.01
2023-02-24T10:49:57.574Z,3.94
2023-02-24T10:51:04.993Z,3.99
2023-02-24T10:52:11.100Z,4.17
2023-02-24T10:53:34.884Z,4.18
2023-02-24T10:54:55.833Z,4.10
2023-02-24T10:56:18.636Z,4.11
2023-02-24T10:57:23.736Z,4.12
2023-02-24T10:58:29.904Z,4.34
2023-02-24T10:59:46.236Z,4.45
2023-02-24T11:00:54.925Z,4.38
2023-02-24T11:02:08.232Z,4.13
2023-02-24T11:03:22.144Z,4.08
2023-02-24T11:04:32.075Z,3.97
2023-02-24T11:05:44.982Z,4.07
2023-02-24T11:06:55.840Z,4.17
2023-02-24T11:08:09.637Z,4.25
2023-02-24T11:09:30.200Z,3.89
2023-02-24T11:10:37.845Z,4.13
2023-02-24T11:11:59.207Z,4.12
2023-02-24T11:13:24.743Z,4.47
2023-02-24T11:14:47.579Z,4.50
2023-02-24T11:16:09.865Z,4.29
2023-02-24T11:17:16.726Z,4.33
2023-02-24T11:18:20.744Z,4.50
2023-02-24T11:19:31.821Z,4.45
2023-02-24T11:20:49.587Z,4.26
2023-02-24T11:21:50.386Z,4.38
2023-02-24T11:22:56.169Z,4.41
2023-02-24T11:24:02.629Z,4.09
2023-02-24T11:25:07.708Z,4.07
2023-02-24T11:26:17.265Z,4.23
2023-02-24T11:27:24.977Z,4.37
2023-02-24T11:28:30.088Z,4.25
2023-02-24T11:29:35.011Z,4.30
2023-02-24T11:30:43.102Z,4.33
2023-02-24T11:31:54.216Z,4.43
2023-02-24T11:32:59.445Z,4.56
2023-02-24T11:34:07.416Z,4.68
2023-02-24T11:35:13.065Z,4.55
2023-02-24T11:36:24.134Z,4.67
2023-02-24T11:37:43.351Z,4.70
2023-02-24T11:39:15.315Z,4.94
2023-02-24T11:40:09.527Z,4.67
2023-02-24T11:41:23.986Z,4.51
2023-02-24T11:42:28.607Z,4.68
2023-02-24T11:43:33.797Z,4.63
2023-02-24T11:44:40.798Z,4.59
2023-02-24T11:45:46.589Z,4.39
2023-02-24T11:46:50.817Z,4.71
2023-02-24T11:47:55.533Z,4.66
2023-02-24T11:49:00.036Z,4.56
2023-02-24T11:50:05.368Z,4.47
2023-02-24T11:51:15.285Z,4.47
2023-02-24T11:52:20.643Z,4.49
2023-02-24T11:53:33.496Z,4.11
2023-02-24T11:54:42.036Z,4.27
2023-02-24T11:55:50.611Z,4.32
2023-02-24T11:56:55.288Z,4.38
2023-02-24T11:58:00.131Z,4.33
2023-02-24T11:59:22.634Z,4.24
2023-02-24T12:00:27.856Z,4.41
2023-02-24T12:01:34.788Z,4.39
2023-02-24T12:02:48.684Z,4.49
2023-02-24T12:03:59.511Z,4.63
2023-02-24T12:05:07.428Z,4.50
2023-02-24T12:06:14.782Z,4.52
2023-02-24T12:07:18.866Z,4.29
2023-02-24T12:08:35.750Z,4.41
2023-02-24T12:09:56.294Z,4.37
2023-02-24T12:10:59.568Z,4.24
2023-02-24T12:12:03.728Z,4.31
2023-02-24T12:13:14.819Z,4.38
2023-02-24T12:14:25.546Z,4.34
2023-02-24T12:15:36.345Z,4.36
2023-02-24T12:16:40.851Z,4.18
2023-02-24T12:17:53.531Z,4.36
2023-02-24T12:18:59.506Z,4.32
2023-02-24T12:20:07.470Z,4.21
2023-02-24T12:21:15.534Z,4.31
2023-02-24T12:22:19.085Z,4.36
2023-02-24T12:23:26.534Z,4.28
2023-02-24T12:24:30.730Z,4.35
2023-02-24T12:25:36.316Z,4.37
2023-02-24T12:26:52.319Z,4.50
2023-02-24T12:27:58.944Z,4.33
2023-02-24T12:29:14.383Z,4.31
2023-02-24T12:30:39.159Z,4.24
2023-02-24T12:31:51.486Z,4.23
2023-02-24T12:33:02.599Z,4.30
2023-02-24T12:34:17.352Z,4.33
2023-02-24T12:35:22.139Z,4.25
2023-02-24T12:36:33.013Z,4.39
2023-02-24T12:37:55.024Z,4.54
2023-02-24T12:39:06.814Z,4.58
2023-02-24T12:40:13.299Z,4.60
2023-02-24T12:41:37.329Z,4.57
2023-02-24T12:42:42.653Z,4.36
2023-02-24T12:43:49.652Z,4.39
2023-02-24T12:45:03.538Z,4.33
2023-02-24T12:46:27.411Z,4.43
2023-02-24T12:47:46.968Z,4.33
2023-02-24T12:48:54.935Z,4.10
2023-02-24T12:50:08.836Z,4.19
2023-02-24T12:51:14.717Z,4.52
2023-02-24T12:52:32.965Z,4.41
2023-02-24T12:53:44.067Z,4.42
2023-02-24T12:54:57.569Z,4.31
2023-02-24T12:56:08.657Z,4.44
2023-02-24T12:57:15.377Z,4.55
2023-02-24T12:58:20.372Z,4.60
2023-02-24T12:59:25.424Z,4.81
2023-02-24T13:00:35.029Z,4.93
2023-02-24T13:01:45.626Z,5.00
2023-02-24T13:03:00.689Z,4.88
2023-02-24T13:04:08.824Z,4.70
2023-02-24T13:05:22.597Z,4.57
2023-02-24T13:06:29.983Z,4.60
2023-02-24T13:07:35.876Z,4.70
2023-02-24T13:08:40.903Z,4.70
2023-02-24T13:10:02.478Z,4.68
2023-02-24T13:11:16.345Z,4.83
2023-02-24T13:12:27.740Z,4.82
2023-02-24T13:13:46.304Z,4.76
2023-02-24T13:14:49.345Z,4.62
2023-02-24T13:15:54.509Z,4.72
2023-02-24T13:17:05.627Z,4.85
2023-02-24T13:18:12.500Z,4.91
2023-02-24T13:19:19.990Z,5.07
2023-02-24T13:21:39.717Z,5.47
2023-02-24T13:22:44.150Z,5.50
2023-02-24T13:23:58.533Z,5.59
2023-02-24T13:25:03.590Z,5.59
2023-02-24T13:26:06.736Z,5.63
2023-02-24T13:27:25.336Z,5.68
2023-02-24T13:28:32.812Z,5.63
2023-02-24T13:29:46.553Z,5.60
2023-02-24T13:30:52.504Z,5.39
2023-02-24T13:31:56.322Z,5.39
2023-02-24T13:33:08.024Z,5.51
2023-02-24T13:34:31.648Z,5.54
2023-02-24T13:35:35.620Z,5.33
2023-02-24T13:36:41.322Z,5.33
2023-02-24T13:37:47.646Z,5.24
2023-02-24T13:38:51.884Z,5.19
2023-02-24T13:39:54.553Z,5.18
2023-02-24T13:41:11.334Z,5.09
2023-02-24T13:42:22.373Z,5.10
2023-02-24T13:43:26.696Z,5.26
2023-02-24T13:44:31.161Z,5.14
2023-02-24T13:45:35.238Z,5.07
2023-02-24T13:46:47.162Z,5.13
2023-02-24T13:48:09.123Z,5.03
2023-02-24T13:49:24.047Z,5.04
2023-02-24T13:50:29.596Z,5.26
2023-02-24T13:51:49.561Z,5.17
2023-02-24T13:52:54.053Z,5.21
2023-02-24T13:54:02.165Z,5.21
2023-02-24T13:55:09.846Z,5.04
2023-02-24T13:56:30.584Z,4.98
2023-02-24T13:57:40.876Z,4.87
2023-02-24T13:58:50.131Z,5.00
2023-02-24T14:00:01.977Z,5.11
2023-02-24T14:01:25.574Z,5.04
2023-02-24T14:02:29.067Z,4.83
2023-02-24T14:03:32.870Z,4.79
2023-02-24T14:04:40.114Z,4.99
2023-02-24T14:05:44.437Z,5.01
2023-02-24T14:06:49.030Z,4.99
2023-02-24T14:07:52.833Z,4.98
2023-02-24T14:08:59.220Z,5.01
2023-02-24T14:10:04.764Z,4.86
2023-02-24T14:11:10.704Z,4.70
2023-02-24T14:12:20.685Z,4.69
2023-02-24T14:13:26.960Z,4.71
2023-02-24T14:14:30.618Z,4.72
2023-02-24T14:15:35.176Z,4.79
2023-02-24T14:16:41.774Z,4.88
2023-02-24T14:17:44.118Z,4.88
2023-02-24T14:18:58.422Z,4.78
2023-02-24T14:21:29.426Z,4.92
2023-02-24T14:22:35.009Z,4.79
2023-02-24T14:23:42.091Z,4.79
2023-02-24T14:24:45.465Z,4.68
2023-02-24T14:25:52.654Z,4.64
2023-02-24T14:26:57.442Z,4.65
2023-02-24T14:28:01.545Z,4.76
2023-02-24T14:29:07.642Z,4.77
2023-02-24T14:30:24.854Z,4.85
2023-02-24T14:32:42.531Z,4.77
2023-02-24T14:33:47.052Z,4.70
2023-02-24T14:34:51.048Z,4.65
2023-02-24T14:35:54.474Z,4.60
2023-02-24T14:36:59.562Z,4.56
2023-02-24T14:38:03.456Z,4.53
2023-02-24T14:39:18.042Z,4.49
2023-02-24T14:40:24.743Z,4.56
2023-02-24T14:41:28.403Z,4.39
2023-02-24T14:42:33.337Z,4.35
2023-02-24T14:43:41.567Z,4.37
2023-02-24T14:44:46.114Z,4.38
2023-02-24T14:45:50.892Z,4.38
2023-02-24T14:46:55.528Z,4.45
2023-02-24T14:47:58.818Z,4.44
2023-02-24T14:49:01.705Z,4.47
2023-02-24T14:50:05.842Z,4.48
2023-02-24T14:51:11.222Z,4.54
2023-02-24T14:52:21.514Z,4.51
2023-02-24T14:53:26.378Z,4.36
2023-02-24T14:54:47.505Z,4.41
2023-02-24T14:55:53.680Z,4.36
2023-02-24T14:56:58.504Z,4.39
2023-02-24T14:58:09.956Z,4.45